Time;durP1;ratioP1;P1;durP2;ratioP2;P2;SDS_P1;SDS_P2;PMS_P1;PMS_P2;Temp;Humidity;BMP_temperature;BMP_pressure;BME280_temperature;BME280_humidity;BME280_pressure;Samples;Min_cycle;Max_cycle;Signal;HPM_P1;HPM_P2
2023/07/27 00:02:23;;;;;;;5.28;4.28;;;23.80;99.90;;;;;;5035739;28;20072;-67
2023/07/27 00:04:49;;;;;;;3.00;2.00;;;23.80;99.90;;;;;;5035685;28;20464;-67
2023/07/27 00:07:14;;;;;;;4.85;2.08;;;23.70;99.90;;;;;;5035754;28;20044;-68
2023/07/27 00:09:40;;;;;;;8.15;5.50;;;23.50;99.90;;;;;;5035655;28;20048;-67
2023/07/27 00:12:06;;;;;;;8.10;4.93;;;23.60;99.90;;;;;;5035738;28;20029;-67
2023/07/27 00:14:32;;;;;;;6.95;3.22;;;23.50;99.90;;;;;;5021772;28;20034;-68
2023/07/27 00:16:57;;;;;;;4.13;2.70;;;23.50;99.90;;;;;;5028683;28;20049;-68
2023/07/27 00:19:23;;;;;;;4.35;2.60;;;23.50;99.90;;;;;;5028423;28;20026;-68
2023/07/27 00:21:48;;;;;;;11.90;8.20;;;23.40;99.90;;;;;;5035427;28;20572;-67
2023/07/27 00:24:20;;;;;;;8.82;6.75;;;23.50;99.90;;;;;;5035255;28;20025;-69
2023/07/27 00:26:45;;;;;;;6.70;4.40;;;23.40;99.90;;;;;;5035238;28;20396;-68
2023/07/27 00:29:11;;;;;;;14.07;11.02;;;23.30;99.90;;;;;;5035284;28;20105;-68
2023/07/27 00:31:37;;;;;;;8.90;6.82;;;23.40;99.90;;;;;;5035201;28;20013;-67
2023/07/27 00:34:02;;;;;;;4.55;2.88;;;23.40;99.90;;;;;;5035370;28;20029;-68
2023/07/27 00:36:28;;;;;;;6.22;4.05;;;23.40;99.90;;;;;;5035158;28;20128;-68
2023/07/27 00:38:54;;;;;;;3.22;2.80;;;23.30;99.90;;;;;;5035106;28;20493;-68
2023/07/27 00:41:19;;;;;;;7.80;3.35;;;23.20;99.90;;;;;;5035235;28;20024;-68
2023/07/27 00:43:45;;;;;;;17.85;12.40;;;23.30;99.90;;;;;;5034808;28;20026;-68
2023/07/27 00:46:11;;;;;;;4.63;2.63;;;23.30;99.90;;;;;;5034973;28;20468;-68
2023/07/27 00:48:39;;;;;;;9.90;4.43;;;23.20;99.90;;;;;;5035113;28;20036;-69
2023/07/27 00:51:06;;;;;;;4.57;2.92;;;23.20;99.90;;;;;;5034875;28;20469;-68
2023/07/27 00:53:33;;;;;;;2.22;1.13;;;23.20;99.90;;;;;;5035174;28;20033;-68
2023/07/27 00:56:00;;;;;;;4.60;3.05;;;23.10;99.90;;;;;;5032737;28;20037;-68
2023/07/27 00:58:26;;;;;;;4.65;1.63;;;23.00;99.90;;;;;;5023036;28;20029;-68
2023/07/27 01:00:52;;;;;;;3.20;1.50;;;22.90;99.90;;;;;;5034603;28;20091;-68
2023/07/27 01:03:18;;;;;;;6.60;1.80;;;22.90;99.90;;;;;;5034632;28;20021;-68
2023/07/27 01:05:44;;;;;;;5.53;3.17;;;23.00;99.90;;;;;;5034992;28;20064;-68
2023/07/27 01:08:10;;;;;;;2.28;1.00;;;22.90;99.90;;;;;;5020568;28;20041;-68
2023/07/27 01:10:46;;;;;;;2.90;1.30;;;22.90;99.90;;;;;;5034555;28;20033;-68
2023/07/27 01:13:27;;;;;;;2.70;1.20;;;22.90;99.90;;;;;;5034409;28;20502;-68
2023/07/27 01:16:00;;;;;;;1.95;1.13;;;22.90;99.90;;;;;;5034425;28;20104;-68
2023/07/27 01:19:04;;;;;;;2.97;1.08;;;22.70;99.90;;;;;;5033046;28;20037;-67
2023/07/27 01:21:36;;;;;;;1.50;0.90;;;22.70;99.90;;;;;;5022242;28;20175;-68
2023/07/27 01:24:46;;;;;;;1.67;1.40;;;22.60;99.90;;;;;;5034220;28;20431;-68
2023/07/27 01:27:44;;;;;;;2.30;1.00;;;22.50;99.90;;;;;;5033250;28;20057;-68
2023/07/27 01:30:27;;;;;;;1.63;1.10;;;22.60;99.90;;;;;;5023375;28;20093;-67
2023/07/27 01:33:14;;;;;;;2.75;1.40;;;22.70;99.90;;;;;;5032664;28;20112;-68
2023/07/27 01:36:08;;;;;;;3.05;1.20;;;22.50;99.90;;;;;;5020703;28;20017;-68
2023/07/27 01:38:39;;;;;;;2.08;1.20;;;22.60;99.90;;;;;;5030911;28;20497;-68
2023/07/27 01:41:06;;;;;;;2.05;1.02;;;22.70;99.90;;;;;;5034195;28;20030;-68
2023/07/27 01:43:33;;;;;;;1.92;1.10;;;22.60;99.90;;;;;;5026621;28;20025;-67
2023/07/27 01:45:59;;;;;;;1.48;1.08;;;22.60;99.90;;;;;;5033796;28;20108;-68
2023/07/27 01:48:26;;;;;;;2.17;1.10;;;22.50;99.90;;;;;;5033797;28;20052;-67
2023/07/27 01:50:53;;;;;;;0.90;0.88;;;22.50;99.90;;;;;;5032554;28;20029;-67
2023/07/27 01:53:21;;;;;;;4.55;1.50;;;22.50;99.90;;;;;;5033843;28;20022;-67
2023/07/27 01:55:47;;;;;;;3.10;1.20;;;22.40;99.90;;;;;;5033121;28;20489;-68
2023/07/27 01:58:15;;;;;;;2.10;1.08;;;22.50;99.90;;;;;;5033631;28;20430;-68
2023/07/27 02:00:41;;;;;;;2.25;1.20;;;22.60;99.90;;;;;;5032328;28;20045;-68
2023/07/27 02:03:09;;;;;;;1.70;1.33;;;22.30;99.90;;;;;;5033463;28;20048;-67
2023/07/27 02:05:35;;;;;;;4.18;0.90;;;22.30;99.90;;;;;;5033887;28;20086;-68
2023/07/27 02:08:00;;;;;;;1.63;1.30;;;22.30;99.90;;;;;;5033574;28;20112;-68
2023/07/27 02:10:57;;;;;;;2.38;1.13;;;22.30;99.90;;;;;;5033478;28;20025;-68
2023/07/27 02:13:38;;;;;;;1.17;1.08;;;22.20;99.90;;;;;;5019348;28;20044;-68
2023/07/27 02:16:25;;;;;;;1.85;1.30;;;22.20;99.90;;;;;;5033737;28;20032;-68
2023/07/27 02:18:54;;;;;;;1.20;1.10;;;22.30;99.90;;;;;;5021881;28;20083;-68
2023/07/27 02:21:21;;;;;;;2.45;1.27;;;22.20;99.90;;;;;;5033404;28;20024;-67
2023/07/27 02:23:48;;;;;;;2.95;1.20;;;22.30;99.90;;;;;;5033210;28;20384;-68
2023/07/27 02:26:14;;;;;;;1.58;0.98;;;22.30;99.90;;;;;;5033203;28;20056;-67
2023/07/27 02:28:40;;;;;;;1.58;1.00;;;22.30;99.90;;;;;;5024520;28;20494;-68
2023/07/27 02:31:05;;;;;;;1.35;1.00;;;22.30;99.90;;;;;;5031898;28;20022;-68
2023/07/27 02:33:31;;;;;;;1.33;0.95;;;22.20;99.90;;;;;;5033161;28;20029;-67
2023/07/27 02:35:57;;;;;;;1.80;0.85;;;22.20;99.90;;;;;;5033050;28;20026;-68
2023/07/27 02:38:22;;;;;;;2.85;1.40;;;22.00;99.90;;;;;;5033282;28;20128;-68
2023/07/27 02:40:49;;;;;;;2.33;0.88;;;22.20;99.90;;;;;;5033340;28;20422;-67
2023/07/27 02:43:15;;;;;;;0.93;0.93;;;22.10;99.90;;;;;;5033131;28;20390;-67
2023/07/27 02:45:40;;;;;;;1.70;1.15;;;22.10;99.90;;;;;;5032982;28;20025;-67
2023/07/27 02:48:07;;;;;;;1.45;1.33;;;22.00;99.90;;;;;;5033068;28;20021;-68
2023/07/27 02:50:32;;;;;;;1.50;0.95;;;22.10;99.90;;;;;;5033120;28;20044;-68
2023/07/27 02:52:58;;;;;;;1.67;0.80;;;22.10;99.90;;;;;;5032850;28;20471;-68
2023/07/27 02:55:24;;;;;;;1.17;0.80;;;22.10;99.90;;;;;;5032825;28;20026;-68
2023/07/27 02:57:49;;;;;;;1.98;1.00;;;22.10;99.90;;;;;;5033257;28;20037;-67
2023/07/27 03:00:15;;;;;;;1.27;0.90;;;22.10;99.90;;;;;;5032974;28;20095;-67
2023/07/27 03:02:41;;;;;;;1.55;1.00;;;22.10;99.90;;;;;;5032850;28;20036;-67
2023/07/27 03:05:07;;;;;;;1.15;1.00;;;22.10;99.90;;;;;;5033208;28;20026;-67
2023/07/27 03:07:32;;;;;;;1.65;1.10;;;22.00;99.90;;;;;;5033230;28;20419;-67
2023/07/27 03:09:58;;;;;;;1.08;0.90;;;21.90;99.90;;;;;;5029334;28;20061;-67
2023/07/27 03:12:24;;;;;;;1.90;1.00;;;21.90;99.90;;;;;;5030804;28;20394;-68
2023/07/27 03:14:50;;;;;;;1.35;1.20;;;21.80;99.90;;;;;;5036686;28;20025;-67
2023/07/27 03:17:24;;;;;;;2.03;1.27;;;21.80;99.90;;;;;;5035466;28;20033;-67
2023/07/27 03:19:50;;;;;;;1.48;1.30;;;21.80;99.90;;;;;;5036530;28;20616;-67
2023/07/27 03:22:16;;;;;;;1.30;1.20;;;21.80;99.90;;;;;;5036639;28;20142;-68
2023/07/27 03:24:41;;;;;;;1.35;1.25;;;21.80;99.90;;;;;;5036427;28;20036;-67
2023/07/27 03:27:07;;;;;;;1.58;1.48;;;21.70;99.90;;;;;;5036817;28;20013;-67
2023/07/27 03:29:32;;;;;;;2.47;1.27;;;21.70;99.90;;;;;;5036755;28;20056;-67
2023/07/27 03:32:01;;;;;;;1.92;0.88;;;21.70;99.90;;;;;;5036409;28;20538;-68
2023/07/27 03:34:27;;;;;;;3.78;1.45;;;21.80;99.90;;;;;;5036689;28;20040;-67
2023/07/27 03:36:52;;;;;;;1.70;1.10;;;21.80;99.90;;;;;;5036259;28;20018;-67
2023/07/27 03:39:18;;;;;;;2.63;0.88;;;21.80;99.90;;;;;;5036322;28;20037;-67
2023/07/27 03:41:44;;;;;;;2.13;1.20;;;21.80;99.90;;;;;;5036179;28;20036;-68
2023/07/27 03:44:14;;;;;;;3.08;1.25;;;21.70;99.90;;;;;;5036491;28;20360;-67
2023/07/27 03:46:39;;;;;;;3.08;1.10;;;21.70;99.90;;;;;;5036104;28;20021;-67
2023/07/27 03:49:05;;;;;;;1.33;1.23;;;21.70;99.90;;;;;;5034799;28;20032;-67
2023/07/27 03:51:31;;;;;;;3.03;0.93;;;21.80;99.90;;;;;;5032329;28;20119;-67
2023/07/27 03:53:56;;;;;;;1.27;1.17;;;21.90;99.90;;;;;;5036155;28;20391;-67
2023/07/27 03:56:22;;;;;;;2.28;1.23;;;21.90;99.90;;;;;;5035983;28;20059;-67
2023/07/27 03:58:48;;;;;;;1.90;1.25;;;21.90;99.90;;;;;;5035960;28;20061;-67
2023/07/27 04:01:13;;;;;;;2.10;1.17;;;21.80;99.90;;;;;;5036229;28;20034;-67
2023/07/27 04:03:39;;;;;;;2.30;1.33;;;21.90;99.90;;;;;;5036200;28;20509;-68
2023/07/27 04:06:05;;;;;;;1.33;1.23;;;21.70;99.90;;;;;;5035804;28;20014;-68
2023/07/27 04:08:31;;;;;;;1.08;0.82;;;21.80;99.90;;;;;;5035883;28;20491;-67
2023/07/27 04:10:57;;;;;;;1.30;1.00;;;21.70;99.90;;;;;;5035724;28;20084;-68
2023/07/27 04:13:22;;;;;;;1.50;1.00;;;21.70;99.90;;;;;;5034372;28;20488;-68
2023/07/27 04:15:48;;;;;;;2.13;1.15;;;21.70;99.90;;;;;;5035555;28;20074;-68
2023/07/27 04:18:14;;;;;;;2.72;1.20;;;21.70;99.90;;;;;;5035282;28;20025;-67
2023/07/27 04:20:39;;;;;;;1.48;1.25;;;21.70;99.90;;;;;;5035628;28;20038;-68
2023/07/27 04:23:05;;;;;;;1.38;1.27;;;21.70;99.90;;;;;;5035456;28;20025;-67
2023/07/27 04:25:30;;;;;;;1.83;0.82;;;21.70;99.90;;;;;;5035725;28;20022;-68
2023/07/27 04:27:58;;;;;;;1.13;0.80;;;21.70;99.90;;;;;;5035477;28;20061;-68
2023/07/27 04:30:23;;;;;;;1.90;1.00;;;21.70;99.90;;;;;;5034169;28;20125;-68
2023/07/27 04:32:49;;;;;;;2.53;0.93;;;21.60;99.90;;;;;;5021458;28;20101;-68
2023/07/27 04:35:15;;;;;;;2.03;0.95;;;21.70;99.90;;;;;;5030077;28;20017;-68
2023/07/27 04:37:40;;;;;;;2.80;1.15;;;21.70;99.90;;;;;;5027610;28;20044;-68
2023/07/27 04:40:06;;;;;;;2.92;0.90;;;21.60;99.90;;;;;;5035247;28;20033;-68
2023/07/27 04:42:32;;;;;;;0.73;0.63;;;21.70;99.90;;;;;;5033774;28;20395;-67
2023/07/27 04:44:58;;;;;;;1.63;0.85;;;21.70;99.90;;;;;;5034046;28;20026;-67
2023/07/27 04:47:23;;;;;;;3.70;0.95;;;21.70;99.90;;;;;;5035459;28;20465;-68
2023/07/27 04:49:49;;;;;;;2.45;0.93;;;21.70;99.90;;;;;;5035391;28;20077;-68
2023/07/27 04:52:15;;;;;;;2.65;0.88;;;21.70;99.90;;;;;;5035015;28;20065;-68
2023/07/27 04:54:40;;;;;;;2.30;0.82;;;21.60;99.90;;;;;;5034930;28;20029;-68
2023/07/27 04:57:06;;;;;;;2.80;0.88;;;21.70;99.90;;;;;;5021132;28;20030;-68
2023/07/27 04:59:32;;;;;;;1.38;0.90;;;21.70;99.90;;;;;;5034626;28;20046;-68
2023/07/27 05:01:57;;;;;;;4.07;1.02;;;21.70;99.90;;;;;;5033431;28;20037;-68
2023/07/27 05:04:23;;;;;;;1.38;0.90;;;21.80;99.90;;;;;;5020628;28;20117;-68
2023/07/27 05:06:49;;;;;;;3.33;0.95;;;21.70;99.90;;;;;;5035057;28;20025;-68
2023/07/27 05:09:16;;;;;;;3.78;1.10;;;21.80;99.90;;;;;;5034878;28;20029;-68
2023/07/27 05:11:41;;;;;;;2.00;1.08;;;21.80;99.90;;;;;;5034687;28;20071;-68
2023/07/27 05:14:07;;;;;;;1.45;1.00;;;21.80;99.90;;;;;;5033114;28;20026;-68
2023/07/27 05:16:33;;;;;;;6.28;1.00;;;21.90;99.90;;;;;;5034778;28;20060;-68
2023/07/27 05:18:58;;;;;;;1.70;0.95;;;21.90;99.90;;;;;;5034392;28;20041;-68
2023/07/27 05:21:30;;;;;;;2.20;0.93;;;21.90;99.90;;;;;;5034331;28;20444;-68
2023/07/27 05:24:08;;;;;;;1.92;0.90;;;21.90;99.90;;;;;;5034524;28;20071;-68
2023/07/27 05:26:34;;;;;;;4.35;1.50;;;22.00;99.90;;;;;;5034491;28;20383;-68
2023/07/27 05:29:00;;;;;;;2.28;1.02;;;22.00;99.90;;;;;;5034233;28;20033;-68
2023/07/27 05:31:25;;;;;;;2.88;1.13;;;22.00;99.90;;;;;;5033624;28;20040;-68
2023/07/27 05:33:51;;;;;;;1.83;1.05;;;22.00;99.90;;;;;;5034250;28;20380;-68
2023/07/27 05:36:22;;;;;;;3.83;1.10;;;22.00;99.90;;;;;;5034300;28;20505;-68
2023/07/27 05:38:48;;;;;;;1.73;1.10;;;22.00;99.90;;;;;;5033201;28;20052;-67
2023/07/27 05:41:14;;;;;;;3.47;1.27;;;22.00;99.90;;;;;;5032193;28;20021;-68
2023/07/27 05:43:39;;;;;;;2.05;0.90;;;22.10;99.90;;;;;;5033116;28;20414;-68
2023/07/27 05:46:05;;;;;;;3.80;1.17;;;22.00;99.90;;;;;;5033780;28;20025;-68
2023/07/27 05:48:30;;;;;;;2.08;1.27;;;22.00;99.90;;;;;;5033849;28;20090;-68
2023/07/27 05:50:56;;;;;;;4.57;1.40;;;22.00;99.90;;;;;;5033821;28;20087;-67
2023/07/27 05:53:22;;;;;;;2.05;1.50;;;22.00;99.90;;;;;;5033985;28;20040;-68
2023/07/27 05:55:47;;;;;;;4.20;1.45;;;22.10;99.90;;;;;;5034049;28;20108;-68
2023/07/27 05:58:13;;;;;;;3.28;1.90;;;22.10;99.90;;;;;;5033722;28;20112;-67
2023/07/27 06:00:39;;;;;;;2.55;1.52;;;22.10;99.90;;;;;;5033590;28;20046;-68
2023/07/27 06:03:04;;;;;;;2.35;1.50;;;22.20;99.90;;;;;;5033766;28;20079;-68
2023/07/27 06:05:30;;;;;;;5.13;1.20;;;22.20;99.90;;;;;;5033672;28;20120;-68
2023/07/27 06:07:56;;;;;;;2.85;1.20;;;22.20;99.90;;;;;;5033557;28;20021;-67
2023/07/27 06:10:21;;;;;;;5.18;1.80;;;22.20;99.90;;;;;;5033777;28;20025;-67
2023/07/27 06:12:47;;;;;;;2.40;1.17;;;22.30;99.90;;;;;;5030107;28;20525;-67
2023/07/27 06:15:13;;;;;;;6.05;1.55;;;22.20;99.90;;;;;;5023035;28;20022;-68
2023/07/27 06:17:38;;;;;;;13.50;9.13;;;22.20;99.90;;;;;;5033507;28;20391;-67
2023/07/27 06:20:05;;;;;;;6.90;2.72;;;22.20;99.90;;;;;;5033422;28;20406;-68
2023/07/27 06:22:31;;;;;;;9.02;5.32;;;22.30;99.90;;;;;;5020297;28;20056;-68
2023/07/27 06:24:56;;;;;;;8.10;5.00;;;22.40;99.90;;;;;;5032364;28;20479;-81
2023/07/27 06:27:22;;;;;;;8.18;2.65;;;22.30;99.90;;;;;;5033484;28;20033;-71
2023/07/27 06:29:48;;;;;;;5.35;3.22;;;22.30;99.90;;;;;;5032943;28;20031;-68
2023/07/27 06:32:14;;;;;;;6.15;3.22;;;22.30;99.90;;;;;;5033245;28;20029;-71
2023/07/27 06:34:40;;;;;;;5.68;2.40;;;22.40;99.90;;;;;;5019303;28;20017;-68
2023/07/27 06:37:07;;;;;;;9.15;6.18;;;22.40;99.90;;;;;;5033931;28;20034;-70
2023/07/27 06:39:33;;;;;;;8.48;5.38;;;22.30;99.90;;;;;;5033152;28;20087;-66
2023/07/27 06:41:59;;;;;;;18.52;12.48;;;22.30;99.90;;;;;;5031509;28;20542;-65
2023/07/27 06:44:24;;;;;;;10.10;7.65;;;22.30;99.90;;;;;;5033089;28;20152;-65
2023/07/27 06:46:50;;;;;;;9.23;5.18;;;22.40;99.90;;;;;;5033167;28;20499;-65
2023/07/27 06:49:16;;;;;;;13.55;6.85;;;22.40;99.90;;;;;;5033024;28;20029;-63
2023/07/27 06:51:41;;;;;;;4.93;2.55;;;22.50;99.90;;;;;;5029086;28;20467;-62
2023/07/27 06:54:07;;;;;;;12.18;6.57;;;22.60;99.90;;;;;;5033029;28;20379;-62
2023/07/27 06:56:33;;;;;;;9.35;5.93;;;22.70;99.90;;;;;;5032955;28;20487;-62
2023/07/27 06:58:58;;;;;;;6.28;3.17;;;22.70;99.90;;;;;;5032793;28;20081;-65
2023/07/27 07:01:24;;;;;;;21.55;14.15;;;22.90;99.90;;;;;;5032928;28;20123;-65
2023/07/27 07:03:50;;;;;;;5.95;3.50;;;23.00;99.90;;;;;;5032869;28;20039;-63
2023/07/27 07:06:16;;;;;;;5.40;4.28;;;23.10;99.90;;;;;;5032743;28;20022;-59
2023/07/27 07:08:41;;;;;;;8.90;5.57;;;23.10;99.90;;;;;;5032769;28;20025;-63
2023/07/27 07:11:08;;;;;;;5.95;4.00;;;23.00;99.90;;;;;;5032288;28;20135;-62
2023/07/27 07:13:34;;;;;;;6.78;3.70;;;23.10;99.90;;;;;;5031331;28;20483;-66
2023/07/27 07:15:59;;;;;;;6.15;3.85;;;23.10;99.90;;;;;;5032745;28;20036;-65
2023/07/27 07:18:25;;;;;;;9.00;6.53;;;23.10;99.90;;;;;;5032714;28;20387;-60
2023/07/27 07:20:51;;;;;;;8.98;5.15;;;23.30;99.90;;;;;;5029573;28;20410;-63
2023/07/27 07:23:16;;;;;;;11.90;8.07;;;23.30;99.90;;;;;;5030996;28;20084;-66
2023/07/27 07:25:43;;;;;;;3.67;2.50;;;23.30;99.90;;;;;;5032662;28;20034;-59
2023/07/27 07:28:09;;;;;;;10.48;7.72;;;23.50;99.90;;;;;;5029237;28;20424;-55
2023/07/27 07:30:38;;;;;;;19.25;13.95;;;23.60;99.90;;;;;;5032692;28;20033;-60
2023/07/27 07:33:04;;;;;;;13.60;8.10;;;23.70;99.90;;;;;;5032485;28;20091;-57
2023/07/27 07:35:30;;;;;;;7.28;4.68;;;23.80;99.90;;;;;;5031536;28;20037;-62
2023/07/27 07:37:55;;;;;;;9.40;5.43;;;23.90;99.90;;;;;;5032446;28;20483;-70
2023/07/27 07:40:24;;;;;;;3.05;2.38;;;23.70;99.90;;;;;;5033336;28;20025;-74
2023/07/27 07:42:50;;;;;;;4.82;3.28;;;23.80;99.90;;;;;;5032710;28;20041;-67
2023/07/27 07:45:15;;;;;;;5.90;3.88;;;23.80;99.90;;;;;;5032492;28;20418;-64
2023/07/27 07:47:41;;;;;;;6.05;3.75;;;23.60;99.90;;;;;;5032548;28;20010;-60
2023/07/27 07:50:13;;;;;;;5.70;3.03;;;23.60;99.90;;;;;;5032328;28;20026;-61
2023/07/27 07:52:39;;;;;;;17.30;12.40;;;23.60;99.90;;;;;;5032284;28;20045;-60
2023/07/27 07:55:06;;;;;;;5.20;4.45;;;23.60;99.90;;;;;;5034946;28;20052;-69
2023/07/27 07:57:33;;;;;;;4.07;3.67;;;23.80;99.90;;;;;;5034535;28;20030;-70
2023/07/27 07:59:58;;;;;;;8.77;4.40;;;23.80;99.90;;;;;;5035807;28;20037;-72
2023/07/27 08:02:24;;;;;;;3.55;1.77;;;23.90;99.90;;;;;;5034179;28;20026;-64
2023/07/27 08:04:50;;;;;;;13.48;10.55;;;24.00;99.90;;;;;;5023575;28;20556;-64
2023/07/27 08:07:15;;;;;;;9.65;5.38;;;24.00;99.90;;;;;;5035796;28;20032;-64
2023/07/27 08:09:41;;;;;;;28.60;23.77;;;24.20;99.90;;;;;;5021990;28;20044;-64
2023/07/27 08:12:07;;;;;;;3.85;2.60;;;24.40;99.90;;;;;;5035582;28;20033;-64
2023/07/27 08:14:32;;;;;;;6.53;3.35;;;24.40;99.90;;;;;;5035487;28;20029;-72
2023/07/27 08:16:58;;;;;;;6.43;5.43;;;24.40;99.90;;;;;;5035647;28;20032;-57
2023/07/27 08:19:24;;;;;;;6.95;4.53;;;24.50;99.90;;;;;;5035400;28;20044;-58
2023/07/27 08:21:50;;;;;;;12.00;8.45;;;24.60;99.90;;;;;;5018938;28;20483;-56
2023/07/27 08:24:16;;;;;;;6.43;3.20;;;24.50;99.90;;;;;;5032176;28;20068;-66
2023/07/27 08:26:41;;;;;;;4.70;3.53;;;24.60;99.90;;;;;;5058498;28;20483;-62
2023/07/27 08:29:07;;;;;;;154.63;137.77;;;24.50;99.90;;;;;;5022455;28;20030;-65
2023/07/27 08:31:33;;;;;;;4.28;3.13;;;24.70;99.90;;;;;;5032125;28;20028;-75
2023/07/27 08:33:58;;;;;;;7.63;4.70;;;24.80;99.90;;;;;;5034675;28;20057;-66
2023/07/27 08:36:24;;;;;;;111.25;83.85;;;24.70;99.90;;;;;;5034482;28;20096;-64
2023/07/27 08:38:50;;;;;;;12.65;9.32;;;24.80;99.90;;;;;;5032643;28;20045;-64
2023/07/27 08:41:16;;;;;;;13.45;10.15;;;24.70;99.90;;;;;;5032532;28;20025;-66
2023/07/27 08:43:42;;;;;;;13.23;10.38;;;24.60;99.90;;;;;;5032203;28;20453;-66
2023/07/27 08:46:08;;;;;;;6.70;3.80;;;24.70;99.90;;;;;;5032973;28;20026;-64
2023/07/27 08:48:34;;;;;;;8.32;6.40;;;24.80;99.90;;;;;;5023239;28;20036;-62
2023/07/27 08:51:00;;;;;;;6.03;4.65;;;24.80;99.90;;;;;;5033242;28;20037;-59
2023/07/27 08:53:26;;;;;;;17.30;11.32;;;24.90;99.90;;;;;;5033847;28;20037;-58
2023/07/27 08:59:24;;;;;;;6.30;4.43;;;24.90;99.90;;;;;;5032667;28;20406;-50
2023/07/27 09:01:50;;;;;;;9.48;5.70;;;24.90;99.90;;;;;;5034757;28;20022;-54
2023/07/27 09:04:16;;;;;;;11.35;6.28;;;24.90;99.90;;;;;;5020927;28;20045;-53
2023/07/27 09:06:44;;;;;;;13.02;7.88;;;25.00;99.90;;;;;;5033521;28;20053;-51
2023/07/27 09:09:14;;;;;;;36.88;26.40;;;24.90;99.90;;;;;;5034703;28;20013;-54
2023/07/27 09:11:41;;;;;;;11.07;8.35;;;24.90;99.90;;;;;;5033904;28;20030;-52
2023/07/27 09:14:08;;;;;;;15.45;11.15;;;25.00;99.90;;;;;;5033556;28;20371;-57
2023/07/27 09:16:37;;;;;;;10.05;3.17;;;24.90;99.90;;;;;;5034112;28;20029;-54
2023/07/27 09:19:04;;;;;;;3.80;3.25;;;25.00;99.90;;;;;;5034284;28;20037;-51
2023/07/27 09:21:44;;;;;;;23.88;16.85;;;25.00;99.90;;;;;;5034290;28;20025;-59
2023/07/27 09:24:16;;;;;;;8.52;5.43;;;25.30;99.90;;;;;;5033809;28;20514;-62
2023/07/27 09:26:52;;;;;;;10.98;7.93;;;25.30;99.90;;;;;;5032084;28;20017;-62
2023/07/27 09:29:20;;;;;;;8.43;7.13;;;25.20;99.90;;;;;;5032738;28;20037;-69
2023/07/27 09:31:58;;;;;;;14.10;11.32;;;25.20;99.90;;;;;;5030884;28;20386;-69
2023/07/27 09:34:29;;;;;;;19.50;13.40;;;25.40;99.90;;;;;;5034017;28;20038;-66
2023/07/27 09:37:05;;;;;;;10.68;6.78;;;25.60;99.90;;;;;;5034160;28;20021;-65
2023/07/27 09:39:35;;;;;;;6.18;4.50;;;25.50;99.90;;;;;;5032712;28;20038;-68
2023/07/27 09:42:03;;;;;;;11.57;4.68;;;25.40;99.90;;;;;;5033381;28;20429;-64
2023/07/27 09:44:28;;;;;;;11.35;6.28;;;25.20;99.90;;;;;;5031550;28;20045;-65
2023/07/27 09:46:54;;;;;;;12.00;10.15;;;25.20;99.90;;;;;;5033409;28;20694;-66
2023/07/27 09:49:20;;;;;;;11.63;5.35;;;25.30;99.90;;;;;;5031203;28;20121;-62
2023/07/27 09:51:48;;;;;;;6.10;4.63;;;25.30;99.90;;;;;;5026453;28;20061;-68
2023/07/27 09:54:14;;;;;;;3.97;2.83;;;25.40;99.90;;;;;;5033697;28;20021;-68
2023/07/27 09:56:40;;;;;;;9.73;5.20;;;25.40;99.90;;;;;;5032520;28;20533;-65
2023/07/27 09:59:06;;;;;;;19.27;14.65;;;;;;;;;;5033572;28;20132;-70
2023/07/27 10:01:33;;;;;;;50.00;36.63;;;;;;;;;;5033829;28;20017;-68
2023/07/27 10:03:59;;;;;;;18.38;13.40;;;;;;;;;;5030076;28;20057;-66
2023/07/27 10:06:26;;;;;;;15.25;11.00;;;;;;;;;;5033367;28;20018;-65
2023/07/27 10:08:52;;;;;;;32.33;26.00;;;;;;;;;;5033059;28;20029;-62
2023/07/27 10:11:19;;;;;;;15.55;11.77;;;;;;;;;;5031496;28;20071;-64
2023/07/27 10:13:46;;;;;;;20.77;15.07;;;;;;;;;;5031626;28;20360;-67
2023/07/27 10:16:16;;;;;;;29.83;23.77;;;;;;;;;;5029161;28;20033;-63
2023/07/27 10:18:49;;;;;;;32.50;27.05;;;;;;;;;;5032843;28;20072;-65
2023/07/27 10:21:20;;;;;;;35.10;28.35;;;25.60;99.90;;;;;;5033385;28;20049;-63
2023/07/27 10:24:19;;;;;;;8.23;6.53;;;27.00;99.90;;;;;;5033527;28;20064;-66
2023/07/27 10:26:52;;;;;;;16.02;12.35;;;26.70;99.90;;;;;;5005421;28;20021;-64
2023/07/27 10:29:19;;;;;;;19.98;16.55;;;;;;;;;;5033652;28;20029;-60
2023/07/27 10:31:46;;;;;;;7.00;4.18;;;;;;;;;;5033146;28;20079;-62
2023/07/27 10:34:12;;;;;;;5.65;3.70;;;;;;;;;;5026442;28;20057;-63
2023/07/27 10:36:47;;;;;;;7.53;6.07;;;;;;;;;;5016298;28;20025;-66
2023/07/27 10:39:18;;;;;;;11.65;8.10;;;;;;;;;;5031385;28;20068;-72
2023/07/27 10:42:00;;;;;;;74.78;59.30;;;;;;;;;;5029717;28;20018;-68
2023/07/27 10:44:27;;;;;;;21.67;16.95;;;;;;;;;;5021260;28;20030;-68
2023/07/27 10:46:59;;;;;;;8.45;5.35;;;;;;;;;;5029522;28;20040;-68
2023/07/27 10:49:25;;;;;;;6.70;5.15;;;;;;;;;;5031102;28;20079;-68
2023/07/27 10:51:52;;;;;;;9.48;7.53;;;;;;;;;;5029624;28;20029;-66
2023/07/27 10:54:30;;;;;;;4.55;2.95;;;;;;;;;;5032638;28;20387;-62
2023/07/27 10:56:56;;;;;;;17.25;13.75;;;26.60;99.90;;;;;;5032272;28;20037;-62
2023/07/27 10:59:22;;;;;;;10.00;8.88;;;27.30;99.90;;;;;;5032462;28;20041;-62
2023/07/27 11:01:48;;;;;;;11.80;7.70;;;27.20;99.90;;;;;;5032929;28;20037;-63
2023/07/27 11:04:24;;;;;;;21.10;18.02;;;27.10;99.90;;;;;;5032733;28;20069;-62
2023/07/27 11:06:50;;;;;;;6.93;4.00;;;27.10;99.90;;;;;;5032871;28;20025;-63
2023/07/27 11:09:16;;;;;;;8.73;7.85;;;27.20;99.90;;;;;;5033031;28;20597;-64
2023/07/27 11:11:43;;;;;;;13.07;11.65;;;27.10;99.90;;;;;;5032489;28;20108;-64
2023/07/27 11:14:10;;;;;;;30.42;21.98;;;;;;;;;;5031331;28;20062;-63
2023/07/27 11:16:37;;;;;;;15.48;10.65;;;;;;;;;;5032608;28;20025;-64
2023/07/27 11:19:04;;;;;;;15.88;11.93;;;;;;;;;;5031098;28;20057;-63
2023/07/27 11:21:31;;;;;;;35.53;27.02;;;;;;;;;;5031841;28;20025;-63
2023/07/27 11:23:58;;;;;;;17.73;13.88;;;;;;;;;;5031125;28;20068;-62
2023/07/27 11:26:27;;;;;;;20.45;15.73;;;;;;;;;;5031542;28;20533;-62
2023/07/27 11:28:56;;;;;;;7.10;6.10;;;;;;;;;;5031947;28;20045;-62
2023/07/27 11:31:22;;;;;;;9.45;7.68;;;;;;;;;;5035863;28;20040;-63
2023/07/27 11:33:48;;;;;;;7.15;5.32;;;;;;;;;;5035115;28;20068;-63
2023/07/27 11:36:15;;;;;;;33.35;29.80;;;;;;;;;;5042008;28;20044;-63
2023/07/27 11:38:41;;;;;;;24.95;21.20;;;27.40;99.90;;;;;;5036361;28;20458;-63
2023/07/27 11:41:07;;;;;;;11.05;9.57;;;30.10;99.90;;;;;;5036164;28;20411;-64
2023/07/27 11:43:33;;;;;;;4.50;3.45;;;33.60;99.90;;;;;;5034827;28;20152;-63
2023/07/27 11:46:01;;;;;;;9.20;5.30;;;;;;;;;;5034865;28;20033;-63
2023/07/27 11:48:28;;;;;;;26.17;22.85;;;35.90;99.90;;;;;;5022228;28;20037;-63
2023/07/27 11:50:55;;;;;;;15.70;13.93;;;;;;;;;;5036091;28;20024;-63
2023/07/27 11:53:28;;;;;;;8.07;5.07;;;36.90;99.90;;;;;;5036053;28;20025;-63
2023/07/27 11:55:54;;;;;;;4.30;3.90;;;;;;;;;;5036084;28;20032;-63
2023/07/27 11:58:20;;;;;;;16.88;12.80;;;;;;;;;;5036051;28;20137;-64
2023/07/27 12:00:50;;;;;;;4.15;3.00;;;;;;;;;;5035603;28;20136;-65
2023/07/27 12:03:18;;;;;;;5.05;4.57;;;40.00;99.90;;;;;;5036230;28;20030;-64
2023/07/27 12:05:44;;;;;;;5.90;3.15;;;;;;;;;;5035743;28;20086;-64
2023/07/27 12:08:10;;;;;;;10.63;4.15;;;;;;;;;;5035815;28;20026;-63
2023/07/27 12:10:36;;;;;;;4.00;3.17;;;41.20;99.90;;;;;;5035922;28;20029;-62
2023/07/27 12:13:05;;;;;;;3.83;3.22;;;39.50;99.90;;;;;;5035494;28;20029;-62
2023/07/27 12:15:31;;;;;;;3.47;3.17;;;38.20;99.90;;;;;;5036000;28;20331;-62
2023/07/27 12:17:59;;;;;;;4.00;3.10;;;38.30;99.90;;;;;;5035468;28;20495;-63
2023/07/27 12:20:27;;;;;;;4.85;3.38;;;38.70;99.90;;;;;;5035403;28;20395;-62
2023/07/27 12:22:53;;;;;;;6.15;3.42;;;39.60;99.90;;;;;;5035469;28;20459;-63
2023/07/27 12:25:19;;;;;;;3.28;2.97;;;40.30;99.90;;;;;;5034075;28;20068;-63
2023/07/27 12:27:48;;;;;;;5.32;3.55;;;40.30;99.90;;;;;;5035274;28;20033;-63
2023/07/27 12:30:14;;;;;;;4.10;3.67;;;39.00;99.90;;;;;;5031462;28;20026;-62
2023/07/27 12:32:43;;;;;;;4.85;3.40;;;38.60;99.90;;;;;;5025163;28;20028;-62
2023/07/27 12:35:10;;;;;;;4.57;4.20;;;38.90;99.90;;;;;;5021511;28;20034;-73
2023/07/27 12:37:36;;;;;;;4.90;3.70;;;;;;;;;;5035312;28;20494;-61
2023/07/27 12:40:03;;;;;;;6.68;3.30;;;39.10;99.90;;;;;;5033822;28;20061;-62
2023/07/27 12:42:32;;;;;;;4.38;4.07;;;38.50;99.90;;;;;;5034735;28;20026;-66
2023/07/27 12:44:57;;;;;;;4.15;3.53;;;38.10;99.90;;;;;;5033725;28;20529;-70
2023/07/27 12:47:23;;;;;;;3.63;3.28;;;37.50;99.90;;;;;;5034388;28;20033;-64
2023/07/27 12:49:49;;;;;;;4.85;3.20;;;36.20;99.90;;;;;;5035139;28;20070;-66
2023/07/27 12:52:15;;;;;;;5.47;3.47;;;35.30;99.90;;;;;;5034896;28;20107;-71
2023/07/27 12:54:40;;;;;;;4.75;3.40;;;35.90;99.90;;;;;;5033824;28;20069;-73
2023/07/27 12:57:07;;;;;;;3.33;3.00;;;35.80;99.90;;;;;;5035358;28;20033;-76
2023/07/27 12:59:32;;;;;;;5.72;3.47;;;35.90;99.90;;;;;;5033575;28;20049;-76
2023/07/27 13:01:58;;;;;;;3.47;3.08;;;35.10;99.90;;;;;;5034959;28;20025;-69